createdAt,value
2019-05-07T00:00:49.551Z,5.92
2019-05-07T00:03:21.929Z,5.17
2019-05-07T00:05:53.928Z,5.53
2019-05-07T00:08:24.171Z,5.72
2019-05-07T00:10:54.499Z,6.40
2019-05-07T00:13:25.005Z,6.65
2019-05-07T00:15:56.412Z,7.62
2019-05-07T00:18:26.812Z,6.90
2019-05-07T00:20:57.288Z,6.75
2019-05-07T00:23:27.594Z,7.08
2019-05-07T00:25:57.980Z,7.60
2019-05-07T00:28:28.378Z,9.35
2019-05-07T00:30:58.839Z,8.08
2019-05-07T00:33:29.338Z,7.60
2019-05-07T00:36:02.614Z,7.60
2019-05-07T00:38:34.636Z,7.37
2019-05-07T00:41:09.350Z,7.53
2019-05-07T00:43:42.757Z,8.38
2019-05-07T00:46:14.430Z,8.45
2019-05-07T00:48:44.849Z,7.55
2019-05-07T00:51:33.357Z,6.90
2019-05-07T00:54:05.315Z,7.42
2019-05-07T00:56:35.765Z,7.05
2019-05-07T00:59:05.973Z,6.45
2019-05-07T01:01:36.596Z,7.55
2019-05-07T01:04:06.995Z,7.90
2019-05-07T01:06:37.419Z,8.08
2019-05-07T01:09:08.316Z,8.18
2019-05-07T01:11:38.781Z,7.62
2019-05-07T01:14:09.196Z,7.78
2019-05-07T01:16:42.087Z,8.33
2019-05-07T01:19:12.743Z,10.00
2019-05-07T01:21:43.464Z,9.23
2019-05-07T01:24:13.911Z,10.60
2019-05-07T01:26:44.382Z,10.13
2019-05-07T01:29:14.798Z,9.30
2019-05-07T01:31:46.830Z,9.20
2019-05-07T01:34:18.806Z,7.03
2019-05-07T01:36:49.269Z,7.17
2019-05-07T01:39:19.687Z,6.72
2019-05-07T01:41:52.317Z,5.08
2019-05-07T01:44:22.283Z,4.92
2019-05-07T01:46:53.023Z,4.92
2019-05-07T01:49:24.072Z,5.10
2019-05-07T01:51:54.619Z,4.40
2019-05-07T01:54:24.942Z,3.67
2019-05-07T01:56:55.294Z,4.33
2019-05-07T01:59:25.599Z,4.17
2019-05-07T02:01:57.557Z,4.15
2019-05-07T02:04:29.457Z,4.08
2019-05-07T02:07:13.340Z,3.83
2019-05-07T02:09:45.207Z,4.25
2019-05-07T02:12:23.121Z,4.80
2019-05-07T02:14:53.441Z,8.95
2019-05-07T02:17:24.098Z,7.22
2019-05-07T02:19:54.502Z,6.78
2019-05-07T02:22:24.955Z,7.20
2019-05-07T02:24:55.377Z,6.78
2019-05-07T02:27:25.727Z,5.78
2019-05-07T02:29:56.042Z,5.50
2019-05-07T02:32:26.398Z,5.30
2019-05-07T02:34:56.807Z,5.78
2019-05-07T02:37:37.647Z,6.22
2019-05-07T02:40:04.466Z,6.03
2019-05-07T02:42:34.643Z,7.30
2019-05-07T02:45:08.897Z,6.75
2019-05-07T02:47:39.359Z,6.67
2019-05-07T02:50:27.378Z,7.40
2019-05-07T02:52:59.405Z,6.65
2019-05-07T02:55:34.326Z,7.30
2019-05-07T02:58:04.785Z,7.20
2019-05-07T03:00:35.717Z,7.97
2019-05-07T03:03:06.094Z,7.10
2019-05-07T03:05:36.505Z,7.80
2019-05-07T03:08:06.890Z,5.83
2019-05-07T03:10:37.292Z,6.53
2019-05-07T03:13:07.746Z,7.30
2019-05-07T03:15:38.071Z,5.78
2019-05-07T03:18:08.602Z,4.85
2019-05-07T03:20:42.902Z,5.35
2019-05-07T03:23:14.205Z,6.53
2019-05-07T03:25:54.244Z,4.05
2019-05-07T03:28:25.468Z,5.40
2019-05-07T03:30:57.532Z,4.83
2019-05-07T03:33:47.043Z,6.20
2019-05-07T03:36:17.749Z,7.08
2019-05-07T03:38:48.295Z,6.78
2019-05-07T03:41:22.693Z,5.15
2019-05-07T03:43:52.766Z,5.10
2019-05-07T03:46:23.621Z,4.62
2019-05-07T03:48:54.129Z,4.97
2019-05-07T03:51:24.549Z,4.22
2019-05-07T03:53:55.023Z,4.15
2019-05-07T03:56:25.315Z,3.90
2019-05-07T03:58:55.670Z,3.65
2019-05-07T04:01:25.964Z,3.95
2019-05-07T04:03:56.345Z,3.37
2019-05-07T04:06:26.648Z,3.47
2019-05-07T04:08:57.067Z,3.83
2019-05-07T04:11:27.371Z,3.30
2019-05-07T04:13:57.719Z,3.67
2019-05-07T04:16:28.019Z,3.35
2019-05-07T04:19:00.076Z,3.00
2019-05-07T04:21:34.158Z,3.10
2019-05-07T04:24:19.726Z,3.50
2019-05-07T04:26:57.790Z,3.85
2019-05-07T04:29:28.242Z,5.17
2019-05-07T04:31:58.664Z,5.53
2019-05-07T04:34:46.592Z,6.55
2019-05-07T04:37:17.024Z,7.00
2019-05-07T04:39:54.113Z,6.85
2019-05-07T04:42:24.826Z,6.97
2019-05-07T04:44:55.328Z,10.72
2019-05-07T04:47:41.346Z,7.33
2019-05-07T04:49:57.819Z,9.28
2019-05-07T04:52:38.048Z,7.03
2019-05-07T04:55:08.745Z,10.70
2019-05-07T04:57:39.089Z,19.82
2019-05-07T05:00:13.468Z,11.05
2019-05-07T05:02:48.135Z,9.68
2019-05-07T05:05:19.190Z,5.05
2019-05-07T05:07:49.580Z,4.70
2019-05-07T05:10:22.761Z,4.95
2019-05-07T05:12:53.627Z,5.58
2019-05-07T05:15:24.376Z,5.40
2019-05-07T05:17:54.801Z,4.78
2019-05-07T05:20:30.724Z,5.20
2019-05-07T05:23:05.525Z,5.00
2019-05-07T05:25:37.951Z,4.20
2019-05-07T05:28:08.457Z,4.12
2019-05-07T05:30:43.377Z,4.00
2019-05-07T05:33:13.651Z,3.67
2019-05-07T05:35:43.996Z,3.87
2019-05-07T05:38:14.247Z,4.35
2019-05-07T05:40:44.585Z,5.55
2019-05-07T05:43:25.471Z,6.80
2019-05-07T05:45:58.959Z,6.10
2019-05-07T05:48:29.389Z,5.83
2019-05-07T05:51:04.084Z,4.97
2019-05-07T05:53:44.687Z,5.03
2019-05-07T05:56:18.784Z,4.92
2019-05-07T05:58:58.022Z,5.40
2019-05-07T06:01:32.036Z,6.40
2019-05-07T06:04:18.868Z,7.00
2019-05-07T06:07:07.653Z,5.12
2019-05-07T06:09:42.592Z,5.45
2019-05-07T06:12:14.611Z,4.80
2019-05-07T06:14:46.617Z,5.28
2019-05-07T06:17:32.069Z,4.95
2019-05-07T06:20:04.226Z,5.17
2019-05-07T06:22:37.203Z,5.08
2019-05-07T06:25:14.431Z,5.60
2019-05-07T06:27:41.822Z,5.22
2019-05-07T06:30:12.420Z,4.60
2019-05-07T06:32:43.130Z,4.20
2019-05-07T06:35:13.561Z,3.50
2019-05-07T06:37:44.970Z,4.10
2019-05-07T06:40:29.311Z,3.90
2019-05-07T06:43:05.450Z,3.15
2019-05-07T06:45:37.367Z,3.87
2019-05-07T06:48:07.845Z,5.67
2019-05-07T06:50:38.266Z,4.47
2019-05-07T06:53:08.913Z,3.98
2019-05-07T06:55:39.329Z,4.10
2019-05-07T06:58:12.196Z,3.65
2019-05-07T07:00:43.823Z,4.10
2019-05-07T07:03:22.355Z,4.42
2019-05-07T07:06:12.524Z,4.50
2019-05-07T07:08:52.640Z,4.80
2019-05-07T07:11:24.329Z,4.60
2019-05-07T07:13:55.071Z,5.03
2019-05-07T07:16:25.440Z,4.78
2019-05-07T07:18:56.109Z,4.62
2019-05-07T07:21:26.551Z,4.87
2019-05-07T07:23:57.948Z,5.08
2019-05-07T07:26:29.785Z,6.40
2019-05-07T07:29:02.059Z,4.60
2019-05-07T07:31:36.722Z,4.72
2019-05-07T07:34:07.527Z,4.55
2019-05-07T07:36:42.282Z,4.83
2019-05-07T07:39:12.688Z,4.87
2019-05-07T07:41:44.679Z,4.12
2019-05-07T07:44:15.051Z,3.90
2019-05-07T07:46:45.400Z,4.28
2019-05-07T07:49:15.963Z,5.10
2019-05-07T07:51:47.666Z,4.28
2019-05-07T07:54:18.111Z,3.98
2019-05-07T07:57:04.896Z,3.70
2019-05-07T07:59:42.762Z,3.85
2019-05-07T08:02:16.590Z,3.60
2019-05-07T08:04:47.253Z,4.22
2019-05-07T08:07:17.776Z,4.22
2019-05-07T08:09:48.173Z,4.00
2019-05-07T08:12:18.577Z,4.03
2019-05-07T08:14:49.033Z,3.77
2019-05-07T08:17:19.492Z,3.85
2019-05-07T08:19:51.989Z,3.90
2019-05-07T08:22:22.750Z,4.53
2019-05-07T08:24:54.290Z,3.60
2019-05-07T08:27:24.762Z,4.53
2019-05-07T08:29:55.354Z,4.03
2019-05-07T08:32:42.810Z,4.42
2019-05-07T08:38:38.402Z,3.95
2019-05-07T08:41:12.809Z,4.17
2019-05-07T08:43:43.415Z,3.95
2019-05-07T08:46:18.928Z,5.28
2019-05-07T08:48:52.801Z,3.90
2019-05-07T08:51:23.095Z,3.67
2019-05-07T08:54:05.659Z,4.42
2019-05-07T08:56:37.339Z,2.90
2019-05-07T08:59:08.099Z,3.65
2019-05-07T09:01:45.805Z,3.27
2019-05-07T09:04:18.865Z,3.90
2019-05-07T09:06:49.560Z,2.83
2019-05-07T09:09:22.040Z,3.40
2019-05-07T09:11:53.776Z,3.52
2019-05-07T09:14:26.271Z,3.90
2019-05-07T09:16:56.886Z,3.67
2019-05-07T09:19:28.373Z,4.20
2019-05-07T09:22:02.179Z,3.65
2019-05-07T09:24:35.686Z,3.50
2019-05-07T09:27:15.145Z,3.80
2019-05-07T09:29:47.903Z,3.35
2019-05-07T09:32:26.879Z,3.55
2019-05-07T09:35:02.273Z,4.28
2019-05-07T09:37:33.682Z,3.60
2019-05-07T09:40:05.550Z,3.35
2019-05-07T09:42:36.865Z,3.80
2019-05-07T09:45:09.233Z,4.22
2019-05-07T09:47:49.426Z,4.78
2019-05-07T09:50:16.862Z,4.70
2019-05-07T09:52:49.009Z,4.53
2019-05-07T09:55:20.224Z,4.17
2019-05-07T09:57:52.729Z,4.47
2019-05-07T10:00:24.349Z,4.45
2019-05-07T10:02:56.684Z,4.30
2019-05-07T10:05:28.758Z,3.77
2019-05-07T10:07:59.371Z,3.90
2019-05-07T10:10:32.932Z,4.10
2019-05-07T10:13:20.186Z,3.98
2019-05-07T10:15:52.622Z,4.70
2019-05-07T10:18:24.465Z,4.67
2019-05-07T10:20:54.927Z,3.80
2019-05-07T10:23:26.246Z,3.95
2019-05-07T10:25:56.699Z,4.40
2019-05-07T10:28:28.432Z,4.28
2019-05-07T10:31:00.818Z,3.90
2019-05-07T10:33:32.070Z,4.03
2019-05-07T10:36:03.208Z,4.00
2019-05-07T10:38:33.753Z,3.70
2019-05-07T10:41:04.501Z,3.67
2019-05-07T10:43:37.402Z,3.92
2019-05-07T10:46:27.590Z,3.87
2019-05-07T10:49:01.794Z,4.35
2019-05-07T10:51:32.344Z,4.10
2019-05-07T10:54:03.740Z,3.42
2019-05-07T10:56:34.310Z,4.10
2019-05-07T10:59:04.974Z,4.08
2019-05-07T11:01:45.948Z,4.33
2019-05-07T11:04:17.997Z,4.40
2019-05-07T11:06:49.731Z,4.35
2019-05-07T11:09:22.184Z,4.60
2019-05-07T11:11:52.633Z,4.83
2019-05-07T11:14:23.176Z,4.75
2019-05-07T11:16:55.295Z,11.28
2019-05-07T11:19:25.764Z,4.72
2019-05-07T11:21:58.091Z,4.78
2019-05-07T11:24:28.667Z,5.03
2019-05-07T11:26:59.762Z,3.87
2019-05-07T11:29:33.044Z,4.08
2019-05-07T11:32:03.469Z,4.53
2019-05-07T11:34:35.600Z,4.65
2019-05-07T11:37:06.072Z,4.97
2019-05-07T11:39:36.887Z,5.08
2019-05-07T11:42:22.000Z,4.67
2019-05-07T11:44:55.079Z,4.83
2019-05-07T11:47:31.834Z,4.40
2019-05-07T11:50:14.769Z,4.72
2019-05-07T11:52:48.049Z,4.95
2019-05-07T11:55:18.897Z,4.40
2019-05-07T11:57:51.840Z,5.05
2019-05-07T12:00:24.680Z,5.70
2019-05-07T12:02:55.427Z,5.10
2019-05-07T12:05:26.412Z,5.58
2019-05-07T12:07:58.996Z,5.62
2019-05-07T12:10:29.912Z,5.25
2019-05-07T12:13:02.352Z,5.92
2019-05-07T12:15:33.857Z,5.42
2019-05-07T12:18:05.284Z,6.30
2019-05-07T12:20:36.288Z,5.80
2019-05-07T12:23:06.819Z,5.67
2019-05-07T12:25:39.142Z,5.95
2019-05-07T12:28:13.284Z,6.42
2019-05-07T12:31:01.457Z,6.45
2019-05-07T12:33:39.545Z,6.17
2019-05-07T12:36:12.683Z,7.75
2019-05-07T12:38:44.553Z,6.62
2019-05-07T12:41:30.118Z,8.13
2019-05-07T12:44:02.774Z,7.03
2019-05-07T12:46:34.091Z,6.58
2019-05-07T12:49:05.143Z,6.90
2019-05-07T12:51:44.324Z,6.58
2019-05-07T12:54:16.594Z,7.10
2019-05-07T12:56:47.282Z,7.10
2019-05-07T12:59:18.004Z,7.33
2019-05-07T13:01:52.793Z,5.55
2019-05-07T13:04:25.142Z,5.55
2019-05-07T13:07:08.919Z,5.80
2019-05-07T13:09:39.433Z,5.58
2019-05-07T13:12:09.988Z,5.30
2019-05-07T13:14:41.000Z,5.78
2019-05-07T13:17:16.104Z,6.62
2019-05-07T13:19:48.779Z,5.47
2019-05-07T13:22:21.825Z,5.40
2019-05-07T13:24:52.964Z,4.67
2019-05-07T13:27:23.925Z,5.17
2019-05-07T13:29:54.785Z,5.12
2019-05-07T13:32:26.863Z,5.95
2019-05-07T13:34:58.334Z,6.05
2019-05-07T13:37:32.506Z,8.30
2019-05-07T13:40:06.766Z,8.35
2019-05-07T13:42:43.520Z,7.42
2019-05-07T13:45:31.840Z,6.97
2019-05-07T13:48:04.283Z,6.40
2019-05-07T13:50:35.191Z,5.92
2019-05-07T13:53:05.870Z,6.10
2019-05-07T13:55:39.027Z,5.50
2019-05-07T13:58:14.087Z,5.72
2019-05-07T14:00:46.985Z,5.85
2019-05-07T14:03:18.694Z,5.75
2019-05-07T14:05:51.583Z,6.47
2019-05-07T14:08:27.874Z,6.72
2019-05-07T14:10:59.139Z,6.97
2019-05-07T14:13:29.797Z,7.95
2019-05-07T14:16:12.047Z,7.70
2019-05-07T14:18:42.883Z,6.72
2019-05-07T14:21:13.703Z,7.33
2019-05-07T14:23:44.552Z,6.03
2019-05-07T14:26:14.998Z,6.33
2019-05-07T14:28:46.308Z,6.03
2019-05-07T14:31:17.536Z,6.05
2019-05-07T14:34:04.910Z,5.92
2019-05-07T14:36:37.827Z,6.25
2019-05-07T14:39:09.084Z,7.28
2019-05-07T14:41:39.702Z,6.67
2019-05-07T14:44:12.167Z,6.95
2019-05-07T14:46:50.208Z,6.20
2019-05-07T14:49:16.759Z,5.95
2019-05-07T14:51:47.318Z,5.42
2019-05-07T14:54:18.383Z,5.20
2019-05-07T14:56:48.964Z,6.03
2019-05-07T14:59:20.699Z,6.00
2019-05-07T15:01:52.228Z,5.78
2019-05-07T15:04:22.843Z,5.47
2019-05-07T15:06:53.975Z,5.90
2019-05-07T15:09:25.059Z,6.58
2019-05-07T15:11:55.930Z,7.08
2019-05-07T15:14:26.442Z,8.98
2019-05-07T15:16:59.598Z,8.38
2019-05-07T15:19:32.087Z,6.80
2019-05-07T15:22:20.327Z,9.40
2019-05-07T15:24:52.495Z,7.87
2019-05-07T15:27:23.591Z,13.55
2019-05-07T15:29:54.094Z,8.23
2019-05-07T15:32:24.578Z,7.53
2019-05-07T15:34:55.197Z,7.95
2019-05-07T15:37:27.900Z,8.58
2019-05-07T15:39:58.485Z,8.20
2019-05-07T15:42:28.929Z,8.08
2019-05-07T15:45:02.265Z,8.95
2019-05-07T15:47:34.446Z,8.60
2019-05-07T15:50:06.647Z,9.43
2019-05-07T15:52:41.601Z,10.95
2019-05-07T15:55:12.298Z,9.98
2019-05-07T15:57:42.885Z,11.57
2019-05-07T16:00:15.616Z,12.25
2019-05-07T16:02:47.658Z,14.55
2019-05-07T16:05:18.394Z,13.72
2019-05-07T16:07:49.999Z,8.18
2019-05-07T16:10:23.004Z,8.78
2019-05-07T16:12:53.200Z,7.75
2019-05-07T16:15:23.753Z,8.10
2019-05-07T16:17:55.793Z,8.88
2019-05-07T16:20:26.313Z,8.43
2019-05-07T16:23:12.081Z,8.80
2019-05-07T16:25:34.217Z,11.08
2019-05-07T16:28:05.090Z,7.92
2019-05-07T16:30:35.630Z,7.67
2019-05-07T16:33:06.014Z,8.13
2019-05-07T16:35:36.580Z,7.15
2019-05-07T16:38:06.992Z,7.08
2019-05-07T16:40:37.529Z,7.47
2019-05-07T16:43:07.962Z,18.73
2019-05-07T16:45:38.427Z,6.22
2019-05-07T16:48:08.907Z,6.85
2019-05-07T16:50:39.407Z,6.25
2019-05-07T16:53:12.108Z,5.65
2019-05-07T16:55:43.054Z,7.58
2019-05-07T16:58:15.159Z,8.05
2019-05-07T17:00:50.002Z,9.23
2019-05-07T17:03:22.075Z,8.15
2019-05-07T17:05:52.610Z,8.05
2019-05-07T17:08:24.704Z,8.65
2019-05-07T17:10:55.330Z,10.58
2019-05-07T17:13:25.861Z,10.32
2019-05-07T17:16:03.096Z,8.35
2019-05-07T17:18:32.875Z,8.58
2019-05-07T17:21:03.386Z,6.97
2019-05-07T17:23:44.009Z,5.97
2019-05-07T17:26:06.276Z,6.75
2019-05-07T17:28:36.773Z,6.83
2019-05-07T17:31:07.236Z,6.30
2019-05-07T17:33:37.689Z,7.37
2019-05-07T17:36:08.371Z,8.45
2019-05-07T17:38:38.821Z,8.48
2019-05-07T17:41:16.445Z,10.25
2019-05-07T17:43:41.460Z,9.93
2019-05-07T17:46:12.318Z,10.72
2019-05-07T17:48:44.300Z,10.18
2019-05-07T17:51:21.899Z,10.23
2019-05-07T17:53:59.401Z,9.98
2019-05-07T17:56:24.599Z,11.10
2019-05-07T17:58:55.060Z,13.65
2019-05-07T18:01:27.093Z,13.18
2019-05-07T18:03:57.942Z,15.83
2019-05-07T18:06:28.476Z,16.35
2019-05-07T18:08:58.947Z,14.83
2019-05-07T18:11:29.460Z,14.15
2019-05-07T18:13:59.953Z,13.25
2019-05-07T18:16:34.951Z,14.45
2019-05-07T18:19:05.441Z,15.90
2019-05-07T18:21:35.963Z,15.20
2019-05-07T18:24:13.586Z,15.40
2019-05-07T18:26:38.639Z,15.23
2019-05-07T18:29:09.018Z,14.87
2019-05-07T18:31:44.045Z,15.48
2019-05-07T18:34:14.512Z,14.30
2019-05-07T18:36:45.166Z,14.78
2019-05-07T18:39:15.519Z,13.88
2019-05-07T18:41:46.003Z,12.40
2019-05-07T18:44:16.511Z,11.65
2019-05-07T18:46:46.889Z,12.00
2019-05-07T18:49:17.264Z,11.18
2019-05-07T18:51:47.806Z,11.63
2019-05-07T18:54:27.750Z,10.40
2019-05-07T18:56:52.707Z,11.85
2019-05-07T18:59:24.162Z,11.78
2019-05-07T19:01:54.666Z,10.43
2019-05-07T19:04:25.131Z,11.43
2019-05-07T19:06:56.655Z,9.93
2019-05-07T19:09:27.183Z,10.15
2019-05-07T19:11:57.786Z,9.98
2019-05-07T19:14:28.273Z,12.23
2019-05-07T19:16:58.790Z,10.50
2019-05-07T19:19:29.236Z,10.18
2019-05-07T19:21:59.731Z,14.38
2019-05-07T19:24:42.284Z,12.43
2019-05-07T19:27:02.436Z,13.28
2019-05-07T19:29:32.941Z,21.80
2019-05-07T19:32:05.017Z,14.43
2019-05-07T19:34:35.432Z,13.35
2019-05-07T19:37:06.008Z,13.72
2019-05-07T19:39:36.464Z,12.63
2019-05-07T19:42:06.987Z,13.78
2019-05-07T19:44:37.451Z,14.35
2019-05-07T19:47:07.934Z,12.68
2019-05-07T19:49:38.366Z,13.93
2019-05-07T19:52:08.864Z,16.15
2019-05-07T19:54:39.268Z,16.52
2019-05-07T19:57:11.834Z,15.00
2019-05-07T19:59:42.867Z,14.90
2019-05-07T20:02:14.966Z,14.05
2019-05-07T20:04:45.360Z,12.37
2019-05-07T20:07:15.884Z,10.55
2019-05-07T20:09:46.306Z,10.00
2019-05-07T20:12:16.785Z,9.18
2019-05-07T20:14:47.239Z,9.58
2019-05-07T20:17:17.711Z,10.70
2019-05-07T20:19:48.108Z,10.75
2019-05-07T20:22:18.485Z,12.00
2019-05-07T20:24:48.917Z,10.53
2019-05-07T20:27:19.409Z,11.93
2019-05-07T20:29:52.147Z,13.93
2019-05-07T20:32:22.545Z,15.93
2019-05-07T20:34:53.021Z,14.25
2019-05-07T20:37:23.589Z,15.13
2019-05-07T20:39:54.015Z,15.13
2019-05-07T20:42:26.199Z,15.00
2019-05-07T20:44:56.602Z,15.32
2019-05-07T20:47:27.078Z,16.80
2019-05-07T20:49:57.512Z,16.15
2019-05-07T20:52:28.698Z,16.60
2019-05-07T20:55:06.715Z,17.87
2019-05-07T20:57:38.765Z,15.20
2019-05-07T21:00:13.990Z,16.07
2019-05-07T21:02:48.078Z,14.10
2019-05-07T21:05:16.599Z,15.68
2019-05-07T21:07:47.074Z,15.68
2019-05-07T21:10:17.501Z,14.70
2019-05-07T21:12:48.128Z,13.98
2019-05-07T21:15:18.542Z,15.68
2019-05-07T21:17:49.036Z,12.73
2019-05-07T21:20:19.518Z,11.70
2019-05-07T21:22:51.906Z,13.43
2019-05-07T21:25:22.683Z,11.08
2019-05-07T21:27:53.255Z,10.53
2019-05-07T21:30:23.692Z,12.73
2019-05-07T21:32:54.146Z,11.25
2019-05-07T21:35:24.583Z,11.48
2019-05-07T21:37:55.204Z,11.45
2019-05-07T21:40:25.630Z,13.15
2019-05-07T21:42:56.127Z,12.63
2019-05-07T21:45:26.572Z,13.48
2019-05-07T21:47:57.071Z,14.73
2019-05-07T21:50:27.491Z,15.25
2019-05-07T21:53:02.870Z,11.00
2019-05-07T21:55:34.916Z,10.68
2019-05-07T21:58:24.637Z,10.25
2019-05-07T22:01:08.929Z,8.95
2019-05-07T22:03:43.149Z,8.48
2019-05-07T22:06:13.696Z,7.45
2019-05-07T22:08:44.076Z,7.90
2019-05-07T22:11:14.399Z,7.67
2019-05-07T22:13:44.893Z,8.10
2019-05-07T22:16:15.305Z,8.80
2019-05-07T22:18:46.316Z,7.60
2019-05-07T22:21:16.708Z,7.87
2019-05-07T22:23:47.195Z,8.23
2019-05-07T22:26:22.873Z,8.90
2019-05-07T22:28:53.876Z,8.55
2019-05-07T22:31:26.272Z,7.97
2019-05-07T22:34:12.712Z,7.87
2019-05-07T22:36:43.141Z,8.25
2019-05-07T22:39:13.728Z,10.15
2019-05-07T22:41:45.033Z,10.65
2019-05-07T22:44:15.548Z,10.95
2019-05-07T22:46:45.979Z,11.38
2019-05-07T22:49:16.476Z,14.20
2019-05-07T22:51:46.879Z,14.53
2019-05-07T22:54:17.376Z,14.40
2019-05-07T22:56:58.185Z,12.73
2019-05-07T22:59:28.694Z,13.05
2019-05-07T23:01:59.105Z,9.83
2019-05-07T23:04:29.574Z,9.78
2019-05-07T23:07:02.149Z,9.70
2019-05-07T23:09:32.120Z,9.93
2019-05-07T23:12:02.562Z,10.58
2019-05-07T23:14:33.159Z,10.63
2019-05-07T23:17:03.538Z,11.12
2019-05-07T23:19:34.020Z,11.28
2019-05-07T23:22:04.448Z,10.05
2019-05-07T23:24:34.942Z,9.70
2019-05-07T23:27:05.356Z,9.25
2019-05-07T23:29:35.841Z,9.05
2019-05-07T23:32:06.287Z,9.78
2019-05-07T23:34:36.762Z,8.93
2019-05-07T23:37:07.197Z,7.85
2019-05-07T23:39:39.308Z,7.53
2019-05-07T23:42:12.670Z,7.87
2019-05-07T23:44:43.178Z,8.03
2019-05-07T23:47:13.630Z,8.30
2019-05-07T23:49:44.093Z,8.13
2019-05-07T23:52:14.517Z,10.55
2019-05-07T23:54:45.003Z,12.10
2019-05-07T23:57:15.607Z,13.90
2019-05-07T23:59:46.114Z,12.93
